Terminal Aerodrome Forecast
Issued by NWS

Home | Current Version | Previous Version | Graphics & Text | Print | Product List | Glossary On
Versions: 1 2 3 4 5 6 7 8 9 10 11 12 13 14 15 16 17 18 19 20
000
FTUS43 KTOP 280520
TAFFOE
TAF
KFOE 280520Z 2806/2906 13010KT P6SM BKN100
     FM280700 14005KT P6SM VCSH BKN050
     FM280900 16007KT P6SM BKN150
     FM281500 22011KT P6SM SCT035=

USA.gov is the U.S. government's official web portal to all federal, state and local government web resources and services.